createdAt,value
2022-10-11T00:23:19.330Z,12.95
2022-10-11T01:03:19.311Z,12.94
2022-10-11T03:03:19.224Z,12.85
2022-10-11T03:23:19.250Z,12.84
2022-10-11T03:43:19.234Z,12.83
2022-10-11T04:23:19.223Z,12.78
2022-10-11T05:43:18.928Z,12.72
2022-10-11T06:03:19.183Z,12.68
2022-10-11T06:23:19.183Z,12.65
2022-10-11T06:43:19.161Z,12.64
2022-10-11T07:03:19.154Z,12.64
2022-10-11T07:23:19.141Z,12.62
2022-10-11T07:43:19.122Z,12.59
2022-10-11T08:03:19.104Z,12.56
2022-10-11T08:23:19.073Z,12.54
2022-10-11T08:43:19.020Z,12.53
2022-10-11T09:03:19.015Z,12.52
2022-10-11T09:23:18.981Z,12.5
2022-10-11T09:43:18.953Z,12.48
2022-10-11T10:03:18.914Z,12.45
2022-10-11T10:23:18.881Z,12.44
2022-10-11T10:43:18.846Z,12.44
2022-10-11T11:03:18.812Z,12.43
2022-10-11T11:23:18.786Z,12.43
2022-10-11T11:43:18.764Z,12.43
2022-10-11T12:03:18.719Z,12.43
2022-10-11T12:23:19.991Z,12.43
2022-10-11T13:03:18.615Z,12.44
2022-10-11T13:23:18.584Z,12.44
2022-10-11T13:43:18.553Z,12.46
2022-10-11T14:03:18.549Z,12.48
2022-10-11T14:23:18.483Z,12.5
2022-10-11T14:43:18.462Z,12.52
2022-10-11T15:03:18.425Z,12.53
2022-10-11T15:23:18.388Z,12.54
2022-10-11T15:43:22.118Z,12.56
2022-10-11T16:03:18.329Z,12.59
2022-10-11T16:23:18.306Z,12.62
2022-10-11T17:03:18.239Z,12.64
2022-10-11T17:43:18.201Z,12.68
2022-10-11T18:43:18.156Z,12.74
2022-10-11T19:03:18.146Z,12.74
2022-10-11T19:23:17.853Z,12.75
2022-10-11T19:43:18.118Z,12.76
2022-10-11T20:03:18.100Z,12.76
2022-10-11T20:23:18.390Z,12.77
2022-10-11T20:43:18.108Z,12.77
2022-10-11T21:03:18.075Z,12.77
2022-10-11T21:23:17.787Z,12.76
2022-10-11T21:43:18.063Z,12.76
2022-10-11T22:03:18.060Z,12.75
2022-10-11T22:23:17.766Z,12.74
